»·PEaware :: ASA1385 KSFO-KSEA

ASA1385 :: KSFO-KSEA

FLIGHT INFORMATION

Flight Status: Arrived
Operator:
Alaska Airlines
More flights by this operator :: More flights under this callsign
Pilot: Paul P. (20696)
Aircraft: AIRBUS A320
(A320)
More flights by this aircraft type
Origin: KSFO San Francisco Intl
United States
Destination: KSEA Seattle-Tacoma Intl
United States
More flights between these airports :: More routes between these airports
Route: ++ TRUKN2 + DEDHD RBL LMT HAWKZ7
File this flight plan on PilotEdge
Remarks: PBN / A1B1C1D1O1S1 DOF / 181004 REG / N625VA EET / KZSE0032 SEL / FQDG CODE / A82AAC OPR / ASA PER / C RMK / TCAS SIMBRIEF
Altitude:
(Current/Filed)
36,000ft
Speed:
(Current/Filed)
448kts
Departed: 04-Oct-18 12:46 PM
Arrived: 04-Oct-18 02:26 PM
Distance/Time
Traveled:
589nm/1:39
Distance/Time
To Go:
Arrived

Flight Plot

Page will automatically refresh every two minutes.

Flight plan parsing failed; only flown route is shown


Map Options




Map Legend


Flown Route
Filed Route
Departure Airport
Arrival Airport
Navaid (VOR, NDB)
Fix

Horizontal Profiles

Position Reports

Time Latitude Longitude Heading Altitude Ground
Speed
04-Oct-18 12:18 37.616766 -122.382221 0 17ft 0kts
04-Oct-18 12:19 37.614511 -122.381879 331 27ft 0kts
04-Oct-18 12:20 37.614511 -122.381879 331 27ft 0kts
04-Oct-18 12:21 37.614511 -122.381879 331 27ft 0kts
04-Oct-18 12:22 37.614511 -122.381879 331 27ft 0kts
04-Oct-18 12:23 37.614511 -122.381879 331 27ft 0kts
04-Oct-18 12:24 37.614511 -122.381879 331 27ft 0kts
04-Oct-18 12:25 37.614511 -122.381879 331 27ft 0kts
04-Oct-18 12:26 37.614511 -122.381879 331 27ft 0kts
04-Oct-18 12:27 37.614511 -122.381879 331 27ft 0kts
04-Oct-18 12:28 37.614511 -122.381879 331 27ft 0kts
04-Oct-18 12:29 37.614511 -122.381879 331 27ft 0kts
04-Oct-18 12:30 37.614511 -122.381879 331 27ft 0kts
04-Oct-18 12:31 37.614511 -122.381879 331 27ft 0kts
04-Oct-18 12:32 37.614511 -122.381879 331 27ft 0kts
04-Oct-18 12:33 37.614511 -122.381879 331 27ft 0kts
04-Oct-18 12:34 37.614511 -122.381879 331 27ft 0kts
04-Oct-18 12:35 37.614511 -122.381879 331 27ft 0kts
04-Oct-18 12:36 37.614511 -122.381879 331 27ft 0kts
04-Oct-18 12:37 37.614511 -122.381879 331 27ft 0kts
04-Oct-18 12:38 37.614511 -122.381879 331 27ft 0kts
04-Oct-18 12:39 37.614511 -122.381879 331 27ft 0kts
04-Oct-18 12:40 37.614269 -122.381610 289 27ft 2kts
04-Oct-18 12:41 37.614429 -122.381088 208 27ft 0kts
04-Oct-18 12:42 37.614429 -122.381088 208 27ft 0kts
04-Oct-18 12:43 37.614428 -122.381088 208 27ft 0kts
04-Oct-18 12:44 37.614242 -122.381214 207 27ft 5kts
04-Oct-18 12:45 37.611032 -122.383386 210 27ft 16kts
04-Oct-18 12:46 37.609229 -122.384714 185 27ft 4kts
04-Oct-18 12:47 37.608210 -122.383133 108 27ft 7kts
04-Oct-18 12:48 37.622243 -122.372877 32 68ft 166kts
04-Oct-18 12:49 37.653786 -122.332717 52 2452ft 180kts
04-Oct-18 12:50 37.686892 -122.273248 55 3907ft 248kts
04-Oct-18 12:51 37.738970 -122.209302 6 6494ft 280kts
04-Oct-18 12:52 37.808687 -122.200140 6 9150ft 294kts
04-Oct-18 12:53 37.892760 -122.185911 5 11497ft 327kts
04-Oct-18 12:54 37.988293 -122.170289 5 13701ft 354kts
04-Oct-18 12:55 38.087848 -122.153890 4 16017ft 367kts
04-Oct-18 12:56 38.191232 -122.136848 3 18116ft 379kts
04-Oct-18 12:57 38.297422 -122.119215 3 19968ft 391kts
04-Oct-18 12:58 38.407002 -122.117332 352 21665ft 397kts
04-Oct-18 12:59 38.502529 -122.124446 353 23023ft 406kts
04-Oct-18 13:00 38.616908 -122.132179 353 24498ft 415kts
04-Oct-18 13:01 38.733009 -122.140169 353 25851ft 423kts
04-Oct-18 13:02 38.851502 -122.148392 352 27099ft 430kts
04-Oct-18 13:03 38.972553 -122.156786 352 28240ft 438kts
04-Oct-18 13:04 39.095139 -122.165347 352 29289ft 445kts
04-Oct-18 13:05 39.219851 -122.174076 352 30299ft 451kts
04-Oct-18 13:06 39.345595 -122.182921 352 31342ft 454kts
04-Oct-18 13:07 39.470199 -122.191618 352 32793ft 444kts
04-Oct-18 13:08 39.593383 -122.200355 352 33856ft 442kts
04-Oct-18 13:09 39.715534 -122.209006 352 34795ft 439kts
04-Oct-18 13:10 39.837283 -122.217687 352 35557ft 437kts
04-Oct-18 13:11 39.958618 -122.226355 352 36053ft 436kts
04-Oct-18 13:12 40.079593 -122.234992 353 36048ft 435kts
04-Oct-18 13:13 40.201151 -122.212049 6 36045ft 444kts
04-Oct-18 13:14 40.322159 -122.182767 5 36079ft 442kts
04-Oct-18 13:15 40.443110 -122.153386 5 36071ft 442kts
04-Oct-18 13:16 40.564468 -122.123963 6 36067ft 442kts
04-Oct-18 13:17 40.685233 -122.094490 5 36067ft 441kts
04-Oct-18 13:18 40.805503 -122.065056 5 36065ft 439kts
04-Oct-18 13:19 40.925614 -122.035559 5 36070ft 437kts
04-Oct-18 13:20 41.044922 -122.006177 5 36033ft 436kts
04-Oct-18 13:21 41.164657 -121.976524 5 35995ft 441kts
04-Oct-18 13:22 41.287106 -121.946123 5 36043ft 449kts
04-Oct-18 13:23 41.407998 -121.915979 5 36043ft 441kts
04-Oct-18 13:24 41.528661 -121.885765 5 36044ft 440kts
04-Oct-18 13:25 41.649190 -121.855486 5 36086ft 440kts
04-Oct-18 13:26 41.769539 -121.825149 5 36089ft 440kts
04-Oct-18 13:27 41.890022 -121.794648 5 36092ft 440kts
04-Oct-18 13:28 42.010264 -121.764097 5 36092ft 438kts
04-Oct-18 13:29 42.129955 -121.733688 3 36083ft 437kts
04-Oct-18 13:30 42.247475 -121.748485 344 36005ft 424kts
04-Oct-18 13:31 42.364264 -121.775456 345 36082ft 425kts
04-Oct-18 13:32 42.480978 -121.802179 345 36092ft 426kts
04-Oct-18 13:33 42.597951 -121.828898 345 36095ft 427kts
04-Oct-18 13:34 42.714925 -121.855812 345 36095ft 426kts
04-Oct-18 13:35 42.832199 -121.882871 345 36083ft 426kts
04-Oct-18 13:36 42.949249 -121.909975 345 36068ft 426kts
04-Oct-18 13:37 43.066007 -121.937123 345 36082ft 426kts
04-Oct-18 13:38 43.182918 -121.964439 345 36097ft 425kts
04-Oct-18 13:39 43.280018 -121.987163 345 36096ft 425kts
04-Oct-18 13:40 43.415867 -122.019067 346 36095ft 423kts
04-Oct-18 13:41 43.531301 -122.046394 346 36106ft 417kts
04-Oct-18 13:42 43.625936 -122.068794 345 36054ft 413kts
04-Oct-18 13:43 43.759481 -122.100621 346 36038ft 425kts
04-Oct-18 13:44 43.855952 -122.123601 345 36063ft 417kts
04-Oct-18 13:45 43.970586 -122.151152 345 36066ft 418kts
04-Oct-18 13:46 44.084648 -122.178582 345 36029ft 415kts
04-Oct-18 13:47 44.199525 -122.206369 345 36037ft 422kts
04-Oct-18 13:48 44.315094 -122.234401 345 36080ft 416kts
04-Oct-18 13:49 44.429125 -122.262200 346 36078ft 416kts
04-Oct-18 13:50 44.542705 -122.289954 345 36068ft 414kts
04-Oct-18 13:51 44.656227 -122.317831 346 36078ft 414kts
04-Oct-18 13:52 44.769949 -122.345874 346 36085ft 413kts
04-Oct-18 13:53 44.882984 -122.373801 346 36090ft 413kts
04-Oct-18 13:54 44.995824 -122.401859 346 36140ft 411kts
04-Oct-18 13:55 45.108729 -122.430007 346 36104ft 412kts
04-Oct-18 13:56 45.221741 -122.458299 346 36126ft 411kts
04-Oct-18 13:57 45.334302 -122.486616 346 36133ft 411kts
04-Oct-18 13:58 45.447334 -122.515167 346 36088ft 412kts
04-Oct-18 13:59 45.560141 -122.543751 346 36090ft 412kts
04-Oct-18 14:00 45.673090 -122.572533 346 36090ft 412kts
04-Oct-18 14:01 45.785849 -122.601185 346 36092ft 412kts
04-Oct-18 14:02 45.898840 -122.628825 346 35189ft 408kts
04-Oct-18 14:03 46.010812 -122.656688 346 32642ft 399kts
04-Oct-18 14:04 46.117606 -122.682239 348 30641ft 379kts
04-Oct-18 14:05 46.219417 -122.702194 348 28686ft 360kts
04-Oct-18 14:06 46.317348 -122.721472 350 26770ft 351kts
04-Oct-18 14:07 46.413868 -122.725570 354 24907ft 343kts
04-Oct-18 14:08 46.508190 -122.729021 354 23140ft 334kts
04-Oct-18 14:09 46.599702 -122.732324 354 21473ft 325kts
04-Oct-18 14:10 46.688985 -122.735523 355 19916ft 316kts
04-Oct-18 14:11 46.776073 -122.736647 7 18425ft 312kts
04-Oct-18 14:12 46.847819 -122.664867 37 16910ft 316kts
04-Oct-18 14:13 46.916866 -122.586041 34 15437ft 314kts
04-Oct-18 14:14 46.995085 -122.536415 12 13989ft 307kts
04-Oct-18 14:15 47.076894 -122.501711 10 12565ft 303kts
04-Oct-18 14:16 47.157686 -122.486097 4 11199ft 298kts
04-Oct-18 14:17 47.239127 -122.472475 4 9821ft 289kts
04-Oct-18 14:18 47.315611 -122.460944 4 8526ft 278kts
04-Oct-18 14:19 47.387937 -122.455137 358 7412ft 251kts
04-Oct-18 14:20 47.454003 -122.455003 359 6591ft 219kts
04-Oct-18 14:21 47.511205 -122.454382 359 5766ft 196kts
04-Oct-18 14:22 47.565545 -122.453700 359 4556ft 195kts
04-Oct-18 14:23 47.600096 -122.414825 89 3470ft 179kts
04-Oct-18 14:24 47.585580 -122.352771 151 2412ft 167kts
04-Oct-18 14:25 47.546569 -122.325569 161 1832ft 140kts
04-Oct-18 14:26 47.508800 -122.312456 172 1363ft 139kts
04-Oct-18 14:27 47.470238 -122.311097 181 632ft 138kts
04-Oct-18 14:28 47.446468 -122.310939 162 447ft 14kts
04-Oct-18 14:29 47.443707 -122.308520 126 447ft 12kts

Navigation Log

Ident Type
Flight plan parsing failed, navigation log unavailable